Cedar City, UT (84721)

7:26 AM MST on November 24, 2014 (GMT -0700)
Fremont mounds | Change Station
CLOSE
Current Station
Personal Weather Station
Location: Paragonah, UT
Elevation: 5873 ft
Nearby Weather Stations

Elev 5873 ft 37.89 °N, 112.77 °W | Updated 10 minutes ago

Clear
Clear
13.3 °F
Feels Like 13 °F
N
0.0
Wind Variable Wind from NNE

Today
High -- | Low -- °F
--% Chance of Precip.
Yesterday
High -- | Low -- °F
Precip. -- in
7:21 AM 5:14 PM
Waxing Crescent, 5% visible
Pressure 30.41 in
Visibility 10.0 miles
Clouds Clear
Windchill 13 °F
Dew Point 9 °F
Humidity 84%
Rainfall 0.00 in
Snow Depth Not available.
UV 0 out of 12
Pollen .20 out of 12
Air Quality Not available.
Flu Activity Not available.
METAR KCDC 241353Z AUTO 00000KT 10SM CLR M11/M13 A3028 RMK AO2 SLP298 T11061133

More Conditions Fewer Conditions

Pressure 30.41 in
Visibility 10.0 miles
Clouds Clear
Windchill 13 °F
Dew Point 9 °F
Humidity 84%
Rainfall 0.00 in
Snow Depth Not available.
UV 0 out of 12
Pollen .20 out of 12
Air Quality Not available.
Flu Activity Not available.
METAR KCDC 241353Z AUTO 00000KT 10SM CLR M11/M13 A3028 RMK AO2 SLP298 T11061133

More Conditions Fewer Conditions

10-Day Weather Forecast

Almanac

Astronomy

Nov. 24, 2014 Rise Set
Actual Time
Civil Twilight
Nautical Twilight
Astronomical Twilight
Moon
Length of Visible Light
Length of Day
Tomorrow will be .
, % of the Moon is Illuminated

Today's Extremes

State Highs State Lows

Community

WunderPhotos

Upload Photos

1,773,343 photos uploaded!

WunderBlogs® & News

Nearby

Air Quality

  Air Quality AQ Index Pollutant
Not available.

Snow Depth

Station Depth Elevation

Earthquake Activity

City Distance Mag. Time & Date
Minimum magnitude displayed is 2.5.

Coastal Water Temperatures

Place Temperature

Nearby Weather Stations